Lynnewood Gardens, Pennsylvania
Current Conditions -  °F | °C
As of 5:55 PM on Monday 24 Nov 2014 (Local Time) from KLOM Reporting Station
Clear Clear  
Wind Chill: 66°   Ceiling: Unl
Heat Index: 66°   Visibility: 10mi
Dew Point: 55°   Wind: 10mph
Humidity: 68%   Direction: 200°SSW
Pressure: 29.66"   Gusts: 17mph
Location:  40.0737°N, 75.1707°W
Report Text: KLOM 242255Z AUTO 20009G15KT 10SM CLR 19/13 A2966 RMK AO1
Loading
Personal Weather Stations






























Interactive Weather Map New forecast layout! Learn more

10-Day Weather Forecast

Advertisements
Track Severe Weather on mobile